Hauptseite
METAR-TAF:

METAR-TAF

Flughäfen :

Córdoba, Argentinien

Flughafen Córdoba

Breite: 31-19S, Länge: 064-13W, Höhe: 484 m

Beobachtung

Neuester Wetterbericht von vor 57 Minuten, um 12:00 UTC
Wind 8 kt aus West
Temperatur 10°C
Luftfeuchtigkeit 34%
Luftdruck 1022 hPa
Sichtweite: 7000 m

METAR: SACO 211200Z 27008KT 7000 NSC 10/M05 Q1022

Zeit: 09:57 (12:57 UTC)

Prognose

Neuester Wetterbericht von vor 1 Stunde und 57 Minuten, um 11:00 UTC
Gültige Prognose vom 21 um 12 UTC bis 22 um 12 UTC
Wind 3 kt aus West
Sichtweite: 7000 m
Übergehend zu
vom 21 um 13 UTC bis 21 um 16 UTC
Wind 5 kt aus Südost

TAF: SACO 211100Z 2112/2212 27003KT 7000 NSC TX23/2118Z TN01/2211Z BECMG 2113/2116 14005KT

Wetterbeobachtungen und Prognosen von mehr als 4000 Flughäfen (METAR und TAF Bericht).

Die verfügbaren Stationen werden durch gelbe und rote Markierungen auf der Karte dargestellt.

Führen Sie die Maus auf sie, um den Namen der Station zu sehen.

Darauf klicken, um die Beobachtung von Wetterbeobachtungen und Prognosen zu sehen.

Um die Karte zu ändern : klicken Sie auf den grünen Tasten mit einem schwarzen Kreuz Zum Vergrößern, auf den grünen Button mit einem Gedankenstrich zu verkleinern, oder auf die grünen Pfeile für benachbarte Karten.


METAR-TAF: